sensor_id;sensor_type;location;lat;lon;timestamp;temperature;humidity
55996;DHT22;75961;51.012;4.634;2024-02-14T00:02:23;10.10;92.40
55996;DHT22;75961;51.012;4.634;2024-02-14T00:04:52;10.10;92.50
55996;DHT22;75961;51.012;4.634;2024-02-14T00:07:19;10.00;92.60
55996;DHT22;75961;51.012;4.634;2024-02-14T00:09:46;10.00;92.80
55996;DHT22;75961;51.012;4.634;2024-02-14T00:12:12;9.90;92.70
55996;DHT22;75961;51.012;4.634;2024-02-14T00:14:38;10.10;92.80
55996;DHT22;75961;51.012;4.634;2024-02-14T00:17:04;10.20;92.40
55996;DHT22;75961;51.012;4.634;2024-02-14T00:19:30;10.10;92.40
55996;DHT22;75961;51.012;4.634;2024-02-14T00:21:56;10.20;92.30
55996;DHT22;75961;51.012;4.634;2024-02-14T00:24:22;10.20;92.10
55996;DHT22;75961;51.012;4.634;2024-02-14T00:26:50;10.30;92.10
55996;DHT22;75961;51.012;4.634;2024-02-14T00:29:16;10.40;91.90
55996;DHT22;75961;51.012;4.634;2024-02-14T00:31:42;10.20;92.20
55996;DHT22;75961;51.012;4.634;2024-02-14T00:34:10;10.10;92.50
55996;DHT22;75961;51.012;4.634;2024-02-14T00:36:36;10.30;92.10
55996;DHT22;75961;51.012;4.634;2024-02-14T00:39:02;10.20;92.20
55996;DHT22;75961;51.012;4.634;2024-02-14T00:41:28;10.30;92.10
55996;DHT22;75961;51.012;4.634;2024-02-14T00:43:58;10.20;92.30
55996;DHT22;75961;51.012;4.634;2024-02-14T00:46:23;10.10;92.50
55996;DHT22;75961;51.012;4.634;2024-02-14T00:48:49;10.30;92.20
55996;DHT22;75961;51.012;4.634;2024-02-14T00:51:15;10.20;92.20
55996;DHT22;75961;51.012;4.634;2024-02-14T00:53:41;10.30;92.00
55996;DHT22;75961;51.012;4.634;2024-02-14T00:56:07;10.30;92.30
55996;DHT22;75961;51.012;4.634;2024-02-14T00:58:33;10.30;92.40
55996;DHT22;75961;51.012;4.634;2024-02-14T01:00:59;10.30;92.20
55996;DHT22;75961;51.012;4.634;2024-02-14T01:03:24;10.40;92.10
55996;DHT22;75961;51.012;4.634;2024-02-14T01:05:50;10.30;92.00
55996;DHT22;75961;51.012;4.634;2024-02-14T01:08:16;10.40;92.10
55996;DHT22;75961;51.012;4.634;2024-02-14T01:10:42;10.40;92.10
55996;DHT22;75961;51.012;4.634;2024-02-14T01:13:08;10.40;92.10
55996;DHT22;75961;51.012;4.634;2024-02-14T01:15:34;10.30;92.20
55996;DHT22;75961;51.012;4.634;2024-02-14T01:18:00;10.30;92.60
55996;DHT22;75961;51.012;4.634;2024-02-14T01:20:25;10.30;92.30
55996;DHT22;75961;51.012;4.634;2024-02-14T01:22:51;10.30;92.30
55996;DHT22;75961;51.012;4.634;2024-02-14T01:25:17;10.40;92.10
55996;DHT22;75961;51.012;4.634;2024-02-14T01:27:43;10.40;92.20
55996;DHT22;75961;51.012;4.634;2024-02-14T01:30:09;10.30;92.40
55996;DHT22;75961;51.012;4.634;2024-02-14T01:32:35;10.30;92.50
55996;DHT22;75961;51.012;4.634;2024-02-14T01:35:01;10.30;92.60
55996;DHT22;75961;51.012;4.634;2024-02-14T01:37:27;10.40;92.60
55996;DHT22;75961;51.012;4.634;2024-02-14T01:39:54;10.30;92.80
55996;DHT22;75961;51.012;4.634;2024-02-14T01:42:20;10.30;92.80
55996;DHT22;75961;51.012;4.634;2024-02-14T01:44:46;10.30;92.80
55996;DHT22;75961;51.012;4.634;2024-02-14T01:47:12;10.30;93.00
55996;DHT22;75961;51.012;4.634;2024-02-14T01:49:38;10.20;93.00
55996;DHT22;75961;51.012;4.634;2024-02-14T01:52:05;10.20;93.30
55996;DHT22;75961;51.012;4.634;2024-02-14T01:54:31;10.20;93.30
55996;DHT22;75961;51.012;4.634;2024-02-14T01:56:58;10.30;93.10
55996;DHT22;75961;51.012;4.634;2024-02-14T01:59:24;10.30;93.20
55996;DHT22;75961;51.012;4.634;2024-02-14T02:01:51;10.20;93.70
55996;DHT22;75961;51.012;4.634;2024-02-14T02:04:18;10.10;94.10
55996;DHT22;75961;51.012;4.634;2024-02-14T02:06:44;10.00;94.40
55996;DHT22;75961;51.012;4.634;2024-02-14T02:09:10;10.00;94.40
55996;DHT22;75961;51.012;4.634;2024-02-14T02:11:52;10.20;94.00
55996;DHT22;75961;51.012;4.634;2024-02-14T02:14:27;10.20;93.80
55996;DHT22;75961;51.012;4.634;2024-02-14T02:16:53;10.20;93.90
55996;DHT22;75961;51.012;4.634;2024-02-14T02:19:19;10.20;94.00
55996;DHT22;75961;51.012;4.634;2024-02-14T02:21:44;10.20;94.00
55996;DHT22;75961;51.012;4.634;2024-02-14T02:24:12;10.20;94.00
55996;DHT22;75961;51.012;4.634;2024-02-14T02:26:37;10.20;94.20
55996;DHT22;75961;51.012;4.634;2024-02-14T02:29:03;10.20;94.10
55996;DHT22;75961;51.012;4.634;2024-02-14T02:31:30;10.30;93.80
55996;DHT22;75961;51.012;4.634;2024-02-14T02:33:56;10.20;93.90
55996;DHT22;75961;51.012;4.634;2024-02-14T02:36:23;10.10;94.30
55996;DHT22;75961;51.012;4.634;2024-02-14T02:38:50;10.20;94.00
55996;DHT22;75961;51.012;4.634;2024-02-14T02:41:16;10.20;94.10
55996;DHT22;75961;51.012;4.634;2024-02-14T02:43:42;10.30;93.90
55996;DHT22;75961;51.012;4.634;2024-02-14T02:46:11;10.20;93.90
55996;DHT22;75961;51.012;4.634;2024-02-14T02:48:36;10.30;93.80
55996;DHT22;75961;51.012;4.634;2024-02-14T02:51:02;10.30;93.80
55996;DHT22;75961;51.012;4.634;2024-02-14T02:53:28;10.30;93.70
55996;DHT22;75961;51.012;4.634;2024-02-14T02:55:54;10.30;93.70
55996;DHT22;75961;51.012;4.634;2024-02-14T02:58:22;10.30;93.90
55996;DHT22;75961;51.012;4.634;2024-02-14T03:00:48;10.40;93.90
55996;DHT22;75961;51.012;4.634;2024-02-14T03:03:17;10.40;93.90
55996;DHT22;75961;51.012;4.634;2024-02-14T03:05:42;10.20;94.40
55996;DHT22;75961;51.012;4.634;2024-02-14T03:08:10;10.10;94.80
55996;DHT22;75961;51.012;4.634;2024-02-14T03:10:41;10.30;94.90
55996;DHT22;75961;51.012;4.634;2024-02-14T03:13:07;10.20;95.20
55996;DHT22;75961;51.012;4.634;2024-02-14T03:15:37;10.30;95.00
55996;DHT22;75961;51.012;4.634;2024-02-14T03:18:03;10.30;95.20
55996;DHT22;75961;51.012;4.634;2024-02-14T03:20:33;10.20;95.30
55996;DHT22;75961;51.012;4.634;2024-02-14T03:22:59;10.20;95.40
55996;DHT22;75961;51.012;4.634;2024-02-14T03:25:25;10.20;95.30
55996;DHT22;75961;51.012;4.634;2024-02-14T03:27:51;10.30;95.20
55996;DHT22;75961;51.012;4.634;2024-02-14T03:30:21;10.30;95.30
55996;DHT22;75961;51.012;4.634;2024-02-14T03:32:51;10.20;95.70
55996;DHT22;75961;51.012;4.634;2024-02-14T03:35:18;10.20;96.30
55996;DHT22;75961;51.012;4.634;2024-02-14T03:37:46;10.10;96.30
55996;DHT22;75961;51.012;4.634;2024-02-14T03:40:14;10.10;96.50
55996;DHT22;75961;51.012;4.634;2024-02-14T03:42:40;10.00;96.60
55996;DHT22;75961;51.012;4.634;2024-02-14T03:45:07;10.10;96.60
55996;DHT22;75961;51.012;4.634;2024-02-14T03:47:33;10.10;96.70
55996;DHT22;75961;51.012;4.634;2024-02-14T03:49:59;10.20;96.40
55996;DHT22;75961;51.012;4.634;2024-02-14T03:52:25;10.20;96.30
55996;DHT22;75961;51.012;4.634;2024-02-14T03:54:52;10.10;96.40
55996;DHT22;75961;51.012;4.634;2024-02-14T03:57:17;10.20;96.10
55996;DHT22;75961;51.012;4.634;2024-02-14T03:59:44;10.20;96.10
55996;DHT22;75961;51.012;4.634;2024-02-14T04:02:10;10.20;96.10
55996;DHT22;75961;51.012;4.634;2024-02-14T04:04:41;10.30;96.00
55996;DHT22;75961;51.012;4.634;2024-02-14T04:07:08;10.30;95.80
55996;DHT22;75961;51.012;4.634;2024-02-14T04:09:35;10.20;96.10
55996;DHT22;75961;51.012;4.634;2024-02-14T04:12:01;10.20;96.30
55996;DHT22;75961;51.012;4.634;2024-02-14T04:14:27;10.20;96.10
55996;DHT22;75961;51.012;4.634;2024-02-14T04:16:52;10.20;96.50
55996;DHT22;75961;51.012;4.634;2024-02-14T04:19:18;10.30;96.10
55996;DHT22;75961;51.012;4.634;2024-02-14T04:21:44;10.40;95.90
55996;DHT22;75961;51.012;4.634;2024-02-14T04:24:10;10.30;96.10
55996;DHT22;75961;51.012;4.634;2024-02-14T04:26:36;10.30;96.20
55996;DHT22;75961;51.012;4.634;2024-02-14T04:29:02;10.20;96.70
55996;DHT22;75961;51.012;4.634;2024-02-14T04:31:28;10.20;96.40
55996;DHT22;75961;51.012;4.634;2024-02-14T04:33:55;10.20;96.20
55996;DHT22;75961;51.012;4.634;2024-02-14T04:36:21;10.30;96.10
55996;DHT22;75961;51.012;4.634;2024-02-14T04:38:50;10.40;95.90
55996;DHT22;75961;51.012;4.634;2024-02-14T04:41:17;10.30;95.70
55996;DHT22;75961;51.012;4.634;2024-02-14T04:43:43;10.50;95.60
55996;DHT22;75961;51.012;4.634;2024-02-14T04:46:09;10.40;95.80
55996;DHT22;75961;51.012;4.634;2024-02-14T04:48:35;10.40;95.80
55996;DHT22;75961;51.012;4.634;2024-02-14T04:51:02;10.50;95.70
55996;DHT22;75961;51.012;4.634;2024-02-14T04:53:28;10.60;95.60
55996;DHT22;75961;51.012;4.634;2024-02-14T04:55:54;10.60;95.60
55996;DHT22;75961;51.012;4.634;2024-02-14T04:58:20;10.50;95.80
55996;DHT22;75961;51.012;4.634;2024-02-14T05:00:46;10.60;95.60
55996;DHT22;75961;51.012;4.634;2024-02-14T05:03:12;10.60;95.50
55996;DHT22;75961;51.012;4.634;2024-02-14T05:05:38;10.60;95.50
55996;DHT22;75961;51.012;4.634;2024-02-14T05:08:04;10.60;95.60
55996;DHT22;75961;51.012;4.634;2024-02-14T05:10:30;10.60;95.40
55996;DHT22;75961;51.012;4.634;2024-02-14T05:12:57;10.70;95.50
55996;DHT22;75961;51.012;4.634;2024-02-14T05:15:23;10.70;95.60
55996;DHT22;75961;51.012;4.634;2024-02-14T05:17:49;10.70;95.80
55996;DHT22;75961;51.012;4.634;2024-02-14T05:20:18;10.60;95.90
55996;DHT22;75961;51.012;4.634;2024-02-14T05:22:44;10.60;96.00
55996;DHT22;75961;51.012;4.634;2024-02-14T05:25:10;10.60;96.00
55996;DHT22;75961;51.012;4.634;2024-02-14T05:27:36;10.60;95.80
55996;DHT22;75961;51.012;4.634;2024-02-14T05:30:05;10.60;96.00
55996;DHT22;75961;51.012;4.634;2024-02-14T05:32:32;10.60;96.00
55996;DHT22;75961;51.012;4.634;2024-02-14T05:34:58;10.70;95.90
55996;DHT22;75961;51.012;4.634;2024-02-14T05:37:24;10.70;95.80
55996;DHT22;75961;51.012;4.634;2024-02-14T05:39:50;10.70;95.80
55996;DHT22;75961;51.012;4.634;2024-02-14T05:42:16;10.70;95.70
55996;DHT22;75961;51.012;4.634;2024-02-14T05:44:42;10.80;95.70
55996;DHT22;75961;51.012;4.634;2024-02-14T05:47:10;10.80;95.60
55996;DHT22;75961;51.012;4.634;2024-02-14T05:49:39;10.80;95.40
55996;DHT22;75961;51.012;4.634;2024-02-14T05:52:06;10.90;95.40
55996;DHT22;75961;51.012;4.634;2024-02-14T05:54:31;10.90;95.20
55996;DHT22;75961;51.012;4.634;2024-02-14T05:56:57;10.80;95.30
55996;DHT22;75961;51.012;4.634;2024-02-14T05:59:23;10.70;95.50
55996;DHT22;75961;51.012;4.634;2024-02-14T06:01:49;10.80;95.30
55996;DHT22;75961;51.012;4.634;2024-02-14T06:04:14;11.10;94.70
55996;DHT22;75961;51.012;4.634;2024-02-14T06:06:40;11.10;94.40
55996;DHT22;75961;51.012;4.634;2024-02-14T06:09:06;11.00;94.60
55996;DHT22;75961;51.012;4.634;2024-02-14T06:11:38;10.90;94.70
55996;DHT22;75961;51.012;4.634;2024-02-14T06:14:08;10.90;94.90
55996;DHT22;75961;51.012;4.634;2024-02-14T06:16:34;10.90;94.80
55996;DHT22;75961;51.012;4.634;2024-02-14T06:19:00;11.00;94.80
55996;DHT22;75961;51.012;4.634;2024-02-14T06:21:26;11.00;94.60
55996;DHT22;75961;51.012;4.634;2024-02-14T06:23:53;10.90;94.70
55996;DHT22;75961;51.012;4.634;2024-02-14T06:26:18;10.90;94.80
55996;DHT22;75961;51.012;4.634;2024-02-14T06:28:45;11.00;94.60
55996;DHT22;75961;51.012;4.634;2024-02-14T06:31:11;11.00;94.50
55996;DHT22;75961;51.012;4.634;2024-02-14T06:33:37;11.00;94.40
55996;DHT22;75961;51.012;4.634;2024-02-14T06:36:03;11.10;94.40
55996;DHT22;75961;51.012;4.634;2024-02-14T06:38:29;11.20;94.00
55996;DHT22;75961;51.012;4.634;2024-02-14T06:40:56;11.20;94.00
55996;DHT22;75961;51.012;4.634;2024-02-14T06:43:22;11.20;93.90
55996;DHT22;75961;51.012;4.634;2024-02-14T06:45:47;11.20;94.10
55996;DHT22;75961;51.012;4.634;2024-02-14T06:48:13;11.20;94.10
55996;DHT22;75961;51.012;4.634;2024-02-14T06:50:39;11.20;93.90
55996;DHT22;75961;51.012;4.634;2024-02-14T06:53:05;11.30;93.70
55996;DHT22;75961;51.012;4.634;2024-02-14T06:55:31;11.30;93.70
55996;DHT22;75961;51.012;4.634;2024-02-14T06:58:00;11.20;94.00
55996;DHT22;75961;51.012;4.634;2024-02-14T07:00:26;11.20;94.20
55996;DHT22;75961;51.012;4.634;2024-02-14T07:02:53;11.30;93.70
55996;DHT22;75961;51.012;4.634;2024-02-14T07:05:19;11.30;93.80
55996;DHT22;75961;51.012;4.634;2024-02-14T07:07:47;11.40;93.60
55996;DHT22;75961;51.012;4.634;2024-02-14T07:10:13;11.30;93.60
55996;DHT22;75961;51.012;4.634;2024-02-14T07:12:39;11.40;93.70
55996;DHT22;75961;51.012;4.634;2024-02-14T07:15:05;11.30;94.00
55996;DHT22;75961;51.012;4.634;2024-02-14T07:17:31;11.30;94.00
55996;DHT22;75961;51.012;4.634;2024-02-14T07:19:58;11.30;94.00
55996;DHT22;75961;51.012;4.634;2024-02-14T07:22:23;11.40;93.70
55996;DHT22;75961;51.012;4.634;2024-02-14T07:24:49;11.30;93.90
55996;DHT22;75961;51.012;4.634;2024-02-14T07:27:15;11.40;93.60
55996;DHT22;75961;51.012;4.634;2024-02-14T07:29:42;11.40;93.80
55996;DHT22;75961;51.012;4.634;2024-02-14T07:32:10;11.40;93.70
55996;DHT22;75961;51.012;4.634;2024-02-14T07:34:38;11.50;93.70
55996;DHT22;75961;51.012;4.634;2024-02-14T07:37:04;11.40;93.60
55996;DHT22;75961;51.012;4.634;2024-02-14T07:39:30;11.60;93.30
55996;DHT22;75961;51.012;4.634;2024-02-14T07:41:56;11.60;93.20
55996;DHT22;75961;51.012;4.634;2024-02-14T07:44:23;11.60;93.40
55996;DHT22;75961;51.012;4.634;2024-02-14T07:46:51;11.60;93.30
55996;DHT22;75961;51.012;4.634;2024-02-14T07:49:18;11.50;93.50
55996;DHT22;75961;51.012;4.634;2024-02-14T07:51:45;11.60;93.20
55996;DHT22;75961;51.012;4.634;2024-02-14T07:54:11;11.80;92.90
55996;DHT22;75961;51.012;4.634;2024-02-14T07:56:36;11.80;92.80
55996;DHT22;75961;51.012;4.634;2024-02-14T07:59:02;11.90;92.60
55996;DHT22;75961;51.012;4.634;2024-02-14T08:01:30;11.90;92.60
55996;DHT22;75961;51.012;4.634;2024-02-14T08:03:56;12.00;92.50
55996;DHT22;75961;51.012;4.634;2024-02-14T08:06:22;12.10;92.20
55996;DHT22;75961;51.012;4.634;2024-02-14T08:08:48;12.10;92.30
55996;DHT22;75961;51.012;4.634;2024-02-14T08:11:19;12.00;92.30
55996;DHT22;75961;51.012;4.634;2024-02-14T08:13:45;12.00;92.90
55996;DHT22;75961;51.012;4.634;2024-02-14T08:16:11;11.80;92.90
55996;DHT22;75961;51.012;4.634;2024-02-14T08:18:38;11.80;93.20
55996;DHT22;75961;51.012;4.634;2024-02-14T08:21:05;11.90;93.00
55996;DHT22;75961;51.012;4.634;2024-02-14T08:23:32;11.90;93.00
55996;DHT22;75961;51.012;4.634;2024-02-14T08:25:58;11.90;93.20
55996;DHT22;75961;51.012;4.634;2024-02-14T08:28:24;11.90;93.50
55996;DHT22;75961;51.012;4.634;2024-02-14T08:30:49;11.80;93.90
55996;DHT22;75961;51.012;4.634;2024-02-14T08:33:15;11.80;93.90
55996;DHT22;75961;51.012;4.634;2024-02-14T08:35:41;11.70;94.50
55996;DHT22;75961;51.012;4.634;2024-02-14T08:38:07;11.60;94.90
55996;DHT22;75961;51.012;4.634;2024-02-14T08:40:34;11.60;95.00
55996;DHT22;75961;51.012;4.634;2024-02-14T08:42:59;11.60;94.90
55996;DHT22;75961;51.012;4.634;2024-02-14T08:45:25;11.60;95.10
55996;DHT22;75961;51.012;4.634;2024-02-14T08:47:56;11.60;95.00
55996;DHT22;75961;51.012;4.634;2024-02-14T08:50:22;11.70;94.90
55996;DHT22;75961;51.012;4.634;2024-02-14T08:52:48;11.70;94.80
55996;DHT22;75961;51.012;4.634;2024-02-14T08:55:13;11.80;94.70
55996;DHT22;75961;51.012;4.634;2024-02-14T08:57:44;11.90;94.30
55996;DHT22;75961;51.012;4.634;2024-02-14T09:00:10;12.00;94.40
55996;DHT22;75961;51.012;4.634;2024-02-14T09:02:36;12.10;94.10
55996;DHT22;75961;51.012;4.634;2024-02-14T09:05:03;12.20;94.00
55996;DHT22;75961;51.012;4.634;2024-02-14T09:07:31;12.10;94.10
55996;DHT22;75961;51.012;4.634;2024-02-14T09:09:58;12.10;94.00
55996;DHT22;75961;51.012;4.634;2024-02-14T09:12:23;12.20;93.70
55996;DHT22;75961;51.012;4.634;2024-02-14T09:14:49;12.10;94.00
55996;DHT22;75961;51.012;4.634;2024-02-14T09:17:15;12.00;94.40
55996;DHT22;75961;51.012;4.634;2024-02-14T09:19:41;11.90;94.70
55996;DHT22;75961;51.012;4.634;2024-02-14T09:22:06;12.20;94.40
55996;DHT22;75961;51.012;4.634;2024-02-14T09:24:32;12.10;94.20
55996;DHT22;75961;51.012;4.634;2024-02-14T09:26:58;12.10;94.30
55996;DHT22;75961;51.012;4.634;2024-02-14T09:29:24;12.00;94.60
55996;DHT22;75961;51.012;4.634;2024-02-14T09:31:53;12.20;94.20
55996;DHT22;75961;51.012;4.634;2024-02-14T09:34:19;12.30;93.80
55996;DHT22;75961;51.012;4.634;2024-02-14T09:36:47;12.20;94.00
55996;DHT22;75961;51.012;4.634;2024-02-14T09:39:15;12.20;94.10
55996;DHT22;75961;51.012;4.634;2024-02-14T09:41:44;12.40;93.80
55996;DHT22;75961;51.012;4.634;2024-02-14T09:44:12;12.30;93.90
55996;DHT22;75961;51.012;4.634;2024-02-14T09:46:38;12.30;93.80
55996;DHT22;75961;51.012;4.634;2024-02-14T09:49:06;12.30;94.00
55996;DHT22;75961;51.012;4.634;2024-02-14T09:51:32;12.40;93.80
55996;DHT22;75961;51.012;4.634;2024-02-14T09:54:00;12.40;94.00
55996;DHT22;75961;51.012;4.634;2024-02-14T09:56:26;12.30;94.20
55996;DHT22;75961;51.012;4.634;2024-02-14T09:58:53;12.30;94.40
55996;DHT22;75961;51.012;4.634;2024-02-14T10:01:23;12.30;94.40
55996;DHT22;75961;51.012;4.634;2024-02-14T10:03:50;12.40;94.20
55996;DHT22;75961;51.012;4.634;2024-02-14T10:06:17;12.30;94.50
55996;DHT22;75961;51.012;4.634;2024-02-14T10:08:46;12.20;94.70
55996;DHT22;75961;51.012;4.634;2024-02-14T10:11:12;12.30;94.60
55996;DHT22;75961;51.012;4.634;2024-02-14T10:13:40;12.20;95.00
55996;DHT22;75961;51.012;4.634;2024-02-14T10:16:06;12.30;94.80
55996;DHT22;75961;51.012;4.634;2024-02-14T10:18:37;12.20;95.20
55996;DHT22;75961;51.012;4.634;2024-02-14T10:21:02;12.20;95.00
55996;DHT22;75961;51.012;4.634;2024-02-14T10:23:29;12.10;95.60
55996;DHT22;75961;51.012;4.634;2024-02-14T10:25:57;12.20;95.30
55996;DHT22;75961;51.012;4.634;2024-02-14T10:28:23;12.20;95.40
55996;DHT22;75961;51.012;4.634;2024-02-14T10:30:49;12.30;95.40
55996;DHT22;75961;51.012;4.634;2024-02-14T10:33:18;12.30;95.30
55996;DHT22;75961;51.012;4.634;2024-02-14T10:35:47;12.50;94.80
55996;DHT22;75961;51.012;4.634;2024-02-14T10:38:14;12.50;94.80
55996;DHT22;75961;51.012;4.634;2024-02-14T10:40:41;12.50;95.00
55996;DHT22;75961;51.012;4.634;2024-02-14T10:43:08;12.50;95.00
55996;DHT22;75961;51.012;4.634;2024-02-14T10:45:38;12.40;95.10
55996;DHT22;75961;51.012;4.634;2024-02-14T10:48:05;12.50;94.80
55996;DHT22;75961;51.012;4.634;2024-02-14T10:50:36;12.60;94.80
55996;DHT22;75961;51.012;4.634;2024-02-14T10:53:04;12.60;94.70
55996;DHT22;75961;51.012;4.634;2024-02-14T10:55:33;12.60;94.80
55996;DHT22;75961;51.012;4.634;2024-02-14T10:57:59;12.60;95.00
55996;DHT22;75961;51.012;4.634;2024-02-14T11:00:26;12.60;94.80
55996;DHT22;75961;51.012;4.634;2024-02-14T11:02:52;12.80;94.70
55996;DHT22;75961;51.012;4.634;2024-02-14T11:05:19;12.70;95.10
55996;DHT22;75961;51.012;4.634;2024-02-14T11:07:49;12.60;95.10
55996;DHT22;75961;51.012;4.634;2024-02-14T11:10:19;12.70;94.80
55996;DHT22;75961;51.012;4.634;2024-02-14T11:12:47;12.70;94.60
55996;DHT22;75961;51.012;4.634;2024-02-14T11:15:19;12.70;94.80
55996;DHT22;75961;51.012;4.634;2024-02-14T11:17:45;12.70;94.90
55996;DHT22;75961;51.012;4.634;2024-02-14T11:20:30;12.70;94.80
55996;DHT22;75961;51.012;4.634;2024-02-14T11:23:03;12.50;95.30
55996;DHT22;75961;51.012;4.634;2024-02-14T11:25:30;12.50;95.80
55996;DHT22;75961;51.012;4.634;2024-02-14T11:28:19;12.60;95.40
55996;DHT22;75961;51.012;4.634;2024-02-14T11:30:45;12.50;95.60
55996;DHT22;75961;51.012;4.634;2024-02-14T11:33:20;12.50;95.70
55996;DHT22;75961;51.012;4.634;2024-02-14T11:35:47;12.50;96.10
55996;DHT22;75961;51.012;4.634;2024-02-14T11:38:15;12.50;96.10
55996;DHT22;75961;51.012;4.634;2024-02-14T11:40:41;12.50;95.80
55996;DHT22;75961;51.012;4.634;2024-02-14T11:43:12;12.50;96.00
55996;DHT22;75961;51.012;4.634;2024-02-14T11:45:39;12.50;96.20
55996;DHT22;75961;51.012;4.634;2024-02-14T11:48:11;12.60;95.90
55996;DHT22;75961;51.012;4.634;2024-02-14T11:50:39;12.60;96.10
55996;DHT22;75961;51.012;4.634;2024-02-14T11:53:06;12.60;96.00
55996;DHT22;75961;51.012;4.634;2024-02-14T11:55:36;12.60;96.30
55996;DHT22;75961;51.012;4.634;2024-02-14T11:58:21;12.60;96.30
55996;DHT22;75961;51.012;4.634;2024-02-14T12:00:47;12.50;96.60
55996;DHT22;75961;51.012;4.634;2024-02-14T12:05:43;12.60;96.70
55996;DHT22;75961;51.012;4.634;2024-02-14T12:08:10;12.70;96.20
55996;DHT22;75961;51.012;4.634;2024-02-14T12:10:36;12.50;96.40
55996;DHT22;75961;51.012;4.634;2024-02-14T12:13:11;12.60;96.60
55996;DHT22;75961;51.012;4.634;2024-02-14T12:15:55;12.60;96.50
55996;DHT22;75961;51.012;4.634;2024-02-14T12:18:21;12.60;96.60
55996;DHT22;75961;51.012;4.634;2024-02-14T12:20:46;12.70;96.40
55996;DHT22;75961;51.012;4.634;2024-02-14T12:23:18;12.90;96.20
55996;DHT22;75961;51.012;4.634;2024-02-14T12:25:45;13.00;95.70
55996;DHT22;75961;51.012;4.634;2024-02-14T12:28:19;13.00;95.60
55996;DHT22;75961;51.012;4.634;2024-02-14T12:30:45;13.10;95.40
55996;DHT22;75961;51.012;4.634;2024-02-14T12:33:13;13.00;95.70
55996;DHT22;75961;51.012;4.634;2024-02-14T12:35:48;13.10;95.60
55996;DHT22;75961;51.012;4.634;2024-02-14T12:38:16;13.00;95.60
55996;DHT22;75961;51.012;4.634;2024-02-14T12:40:42;13.10;95.60
55996;DHT22;75961;51.012;4.634;2024-02-14T12:43:10;13.10;95.60
55996;DHT22;75961;51.012;4.634;2024-02-14T12:45:39;13.10;95.50
55996;DHT22;75961;51.012;4.634;2024-02-14T12:48:06;13.10;95.40
55996;DHT22;75961;51.012;4.634;2024-02-14T12:50:34;13.10;95.40
55996;DHT22;75961;51.012;4.634;2024-02-14T12:53:06;13.10;95.30
55996;DHT22;75961;51.012;4.634;2024-02-14T12:55:33;13.00;95.50
55996;DHT22;75961;51.012;4.634;2024-02-14T12:57:59;13.10;95.40
55996;DHT22;75961;51.012;4.634;2024-02-14T13:00:25;13.10;95.70
55996;DHT22;75961;51.012;4.634;2024-02-14T13:02:51;13.10;95.70
55996;DHT22;75961;51.012;4.634;2024-02-14T13:05:18;13.10;95.70
55996;DHT22;75961;51.012;4.634;2024-02-14T13:07:45;13.10;95.80
55996;DHT22;75961;51.012;4.634;2024-02-14T13:10:12;13.20;95.60
55996;DHT22;75961;51.012;4.634;2024-02-14T13:12:38;13.20;95.80
55996;DHT22;75961;51.012;4.634;2024-02-14T13:15:05;13.10;96.10
55996;DHT22;75961;51.012;4.634;2024-02-14T13:17:31;13.10;95.90
55996;DHT22;75961;51.012;4.634;2024-02-14T13:19:57;13.10;96.00
55996;DHT22;75961;51.012;4.634;2024-02-14T13:22:25;13.00;96.10
55996;DHT22;75961;51.012;4.634;2024-02-14T13:24:51;13.00;96.40
55996;DHT22;75961;51.012;4.634;2024-02-14T13:27:17;13.00;96.50
55996;DHT22;75961;51.012;4.634;2024-02-14T13:29:43;13.00;96.30
55996;DHT22;75961;51.012;4.634;2024-02-14T13:32:09;13.00;96.20
55996;DHT22;75961;51.012;4.634;2024-02-14T13:34:34;13.10;96.30
55996;DHT22;75961;51.012;4.634;2024-02-14T13:37:00;13.20;96.10
55996;DHT22;75961;51.012;4.634;2024-02-14T13:39:28;13.10;96.20
55996;DHT22;75961;51.012;4.634;2024-02-14T13:41:53;13.20;96.20
55996;DHT22;75961;51.012;4.634;2024-02-14T13:44:20;13.20;96.20
55996;DHT22;75961;51.012;4.634;2024-02-14T13:46:46;13.20;96.20
55996;DHT22;75961;51.012;4.634;2024-02-14T13:49:12;13.20;96.30
55996;DHT22;75961;51.012;4.634;2024-02-14T13:51:41;13.20;96.00
55996;DHT22;75961;51.012;4.634;2024-02-14T13:54:07;13.20;96.20
55996;DHT22;75961;51.012;4.634;2024-02-14T13:56:34;13.20;96.50
55996;DHT22;75961;51.012;4.634;2024-02-14T13:59:00;13.20;96.10
55996;DHT22;75961;51.012;4.634;2024-02-14T14:01:26;13.20;96.00
55996;DHT22;75961;51.012;4.634;2024-02-14T14:03:52;13.10;96.40
55996;DHT22;75961;51.012;4.634;2024-02-14T14:06:20;13.20;96.50
55996;DHT22;75961;51.012;4.634;2024-02-14T14:08:46;13.20;96.30
55996;DHT22;75961;51.012;4.634;2024-02-14T14:11:12;13.10;96.50
55996;DHT22;75961;51.012;4.634;2024-02-14T14:13:37;13.10;96.80
55996;DHT22;75961;51.012;4.634;2024-02-14T14:16:03;13.20;96.40
55996;DHT22;75961;51.012;4.634;2024-02-14T14:18:31;13.10;96.20
55996;DHT22;75961;51.012;4.634;2024-02-14T14:20:57;13.20;96.20
55996;DHT22;75961;51.012;4.634;2024-02-14T14:23:23;13.30;96.20
55996;DHT22;75961;51.012;4.634;2024-02-14T14:25:49;13.20;96.40
55996;DHT22;75961;51.012;4.634;2024-02-14T14:28:15;13.20;96.50
55996;DHT22;75961;51.012;4.634;2024-02-14T14:30:41;13.30;96.50
55996;DHT22;75961;51.012;4.634;2024-02-14T14:33:07;13.30;96.30
55996;DHT22;75961;51.012;4.634;2024-02-14T14:35:36;13.30;96.20
55996;DHT22;75961;51.012;4.634;2024-02-14T14:38:03;13.30;96.10
55996;DHT22;75961;51.012;4.634;2024-02-14T14:40:29;13.40;95.80
55996;DHT22;75961;51.012;4.634;2024-02-14T14:42:55;13.40;95.70
55996;DHT22;75961;51.012;4.634;2024-02-14T14:45:20;13.30;96.10
55996;DHT22;75961;51.012;4.634;2024-02-14T14:47:46;13.50;95.90
55996;DHT22;75961;51.012;4.634;2024-02-14T14:50:12;13.50;95.70
55996;DHT22;75961;51.012;4.634;2024-02-14T14:52:41;13.40;96.20
55996;DHT22;75961;51.012;4.634;2024-02-14T14:55:09;13.50;95.80
55996;DHT22;75961;51.012;4.634;2024-02-14T14:57:35;13.40;96.00
55996;DHT22;75961;51.012;4.634;2024-02-14T15:00:09;13.50;95.80
55996;DHT22;75961;51.012;4.634;2024-02-14T15:02:39;13.50;95.70
55996;DHT22;75961;51.012;4.634;2024-02-14T15:05:09;13.60;95.40
55996;DHT22;75961;51.012;4.634;2024-02-14T15:07:35;13.60;95.60
55996;DHT22;75961;51.012;4.634;2024-02-14T15:10:00;13.60;95.80
55996;DHT22;75961;51.012;4.634;2024-02-14T15:12:26;13.80;95.40
55996;DHT22;75961;51.012;4.634;2024-02-14T15:14:52;13.70;95.40
55996;DHT22;75961;51.012;4.634;2024-02-14T15:17:19;13.70;95.40
55996;DHT22;75961;51.012;4.634;2024-02-14T15:19:46;13.80;94.80
55996;DHT22;75961;51.012;4.634;2024-02-14T15:22:12;13.70;95.30
55996;DHT22;75961;51.012;4.634;2024-02-14T15:24:39;13.70;95.20
55996;DHT22;75961;51.012;4.634;2024-02-14T15:27:08;13.70;95.40
55996;DHT22;75961;51.012;4.634;2024-02-14T15:29:36;13.70;95.10
55996;DHT22;75961;51.012;4.634;2024-02-14T15:32:20;13.80;95.00